13°C Temp
4°C Dewpoint
55% Humidity
Temperature
5 KM/H
3 MPH
3 KTS
Calm
Due North

Wind Speed
Clear
Conditions
Pressure 1012.92 (hPa) - 29.91 (in)
Visibility 6.2 (mi) - 10.0 (km)

Current Conditions
LGAV
Location 12(km)
Metar :LGAV 200350Z VRB03KT CAVOK 13/04 Q1013 NOSIG
Tue 20th April 05:50 am

Airport
  Metar Aviation API Data Provided by https://www.checkwx.com/ PHP scripts by weather34.com ©2021